Time;durP1;ratioP1;P1;durP2;ratioP2;P2;SDS_P1;SDS_P2;PMS_P1;PMS_P2;Temp;Humidity;BMP_temperature;BMP_pressure;BME280_temperature;BME280_humidity;BME280_pressure;Samples;Min_cycle;Max_cycle;Signal;HPM_P1;HPM_P2
2022/12/07 00:01:08;;;;;;;47.33;17.92;;;2.70;99.90;;;;;;5027115;28;20030;-77
2022/12/07 00:03:35;;;;;;;45.05;19.63;;;2.70;99.90;;;;;;5024062;28;20112;-76
2022/12/07 00:06:02;;;;;;;52.33;19.33;;;2.70;99.90;;;;;;5027354;28;20025;-76
2022/12/07 00:08:27;;;;;;;44.85;18.60;;;2.70;99.90;;;;;;5034902;28;20024;-76
2022/12/07 00:10:53;;;;;;;52.88;18.98;;;2.80;99.90;;;;;;5021197;28;20044;-76
2022/12/07 00:13:18;;;;;;;49.10;20.45;;;2.80;99.90;;;;;;5023750;28;20120;-76
2022/12/07 00:15:44;;;;;;;48.42;19.80;;;2.80;99.90;;;;;;5026922;28;20037;-76
2022/12/07 00:18:10;;;;;;;52.65;19.85;;;2.80;99.90;;;;;;5027224;28;20033;-76
2022/12/07 00:20:35;;;;;;;45.40;19.40;;;2.80;99.90;;;;;;5023176;28;20111;-76
2022/12/07 00:23:00;;;;;;;48.70;19.48;;;2.80;99.90;;;;;;5033755;28;20045;-76
2022/12/07 00:25:26;;;;;;;56.25;21.92;;;2.80;99.90;;;;;;5024876;28;20329;-76
2022/12/07 00:27:56;;;;;;;48.33;19.73;;;2.90;99.90;;;;;;5021794;28;20090;-76
2022/12/07 00:30:23;;;;;;;50.70;21.10;;;2.90;99.90;;;;;;5028684;28;20041;-76
2022/12/07 00:32:48;;;;;;;51.42;21.92;;;2.90;99.90;;;;;;5026114;28;20088;-76
2022/12/07 00:35:14;;;;;;;46.95;19.02;;;2.90;99.90;;;;;;5025318;28;20041;-76
2022/12/07 00:37:40;;;;;;;47.15;18.80;;;2.90;99.90;;;;;;5025134;28;20041;-76
2022/12/07 00:40:06;;;;;;;44.63;19.13;;;2.90;99.90;;;;;;5030817;28;20033;-76
2022/12/07 00:42:31;;;;;;;43.33;17.88;;;3.00;99.90;;;;;;5025467;28;20163;-76
2022/12/07 00:44:57;;;;;;;44.13;18.10;;;3.00;99.90;;;;;;5022064;28;20057;-76
2022/12/07 00:47:22;;;;;;;37.72;16.02;;;3.00;99.90;;;;;;5016121;28;20055;-76
2022/12/07 00:49:48;;;;;;;43.83;16.27;;;3.00;99.90;;;;;;5025968;28;20175;-76
2022/12/07 00:52:13;;;;;;;45.50;17.80;;;3.10;99.90;;;;;;5013838;28;20041;-76
2022/12/07 00:54:40;;;;;;;39.80;16.48;;;3.10;99.90;;;;;;5024285;28;20045;-76
2022/12/07 00:57:06;;;;;;;35.97;15.35;;;3.10;99.90;;;;;;5026076;28;20065;-76
2022/12/07 00:59:31;;;;;;;35.13;15.00;;;3.20;99.90;;;;;;5024810;28;20068;-76
2022/12/07 01:01:56;;;;;;;42.08;15.73;;;3.20;99.90;;;;;;5024801;28;20026;-76
2022/12/07 01:04:22;;;;;;;38.58;14.23;;;3.10;99.90;;;;;;5014436;28;20037;-76
2022/12/07 01:06:47;;;;;;;33.40;14.50;;;3.20;99.90;;;;;;5024154;28;20142;-76
2022/12/07 01:09:13;;;;;;;28.90;13.98;;;3.20;99.90;;;;;;5030300;28;20034;-76
2022/12/07 01:11:38;;;;;;;40.15;15.60;;;3.20;99.90;;;;;;5014397;28;20140;-76
2022/12/07 01:14:04;;;;;;;35.80;14.60;;;3.20;99.90;;;;;;5024069;28;20036;-76
2022/12/07 01:16:31;;;;;;;39.22;15.57;;;3.30;99.90;;;;;;5026709;28;20033;-76
2022/12/07 01:18:59;;;;;;;28.27;12.35;;;3.20;99.90;;;;;;5022172;28;20060;-77
2022/12/07 01:21:27;;;;;;;28.38;12.57;;;3.30;99.90;;;;;;5014118;28;20095;-76
2022/12/07 01:23:53;;;;;;;34.28;15.15;;;3.20;99.90;;;;;;5021871;28;20111;-76
2022/12/07 01:26:22;;;;;;;38.42;14.18;;;3.20;99.90;;;;;;5021782;28;20370;-76
2022/12/07 01:28:47;;;;;;;36.05;12.82;;;3.20;99.90;;;;;;5024017;28;20095;-76
2022/12/07 01:31:16;;;;;;;35.75;13.50;;;3.30;99.90;;;;;;5025432;28;20034;-76
2022/12/07 01:33:43;;;;;;;35.47;13.68;;;3.20;99.90;;;;;;5024554;28;20021;-76
2022/12/07 01:36:17;;;;;;;30.90;12.25;;;3.30;99.90;;;;;;5023396;28;20144;-76
2022/12/07 01:38:44;;;;;;;30.83;13.43;;;3.20;99.90;;;;;;5020781;28;20045;-76
2022/12/07 01:41:11;;;;;;;33.85;14.45;;;3.20;99.90;;;;;;5024797;28;20134;-76
2022/12/07 01:43:36;;;;;;;24.70;11.50;;;3.20;99.90;;;;;;5024636;28;20033;-76
2022/12/07 01:46:03;;;;;;;23.63;12.02;;;3.20;99.90;;;;;;5022639;28;20361;-76
2022/12/07 01:48:35;;;;;;;25.50;11.38;;;3.10;99.90;;;;;;5021870;28;20026;-76
2022/12/07 01:51:07;;;;;;;30.40;12.45;;;3.10;99.90;;;;;;5008833;28;20060;-75
2022/12/07 01:53:38;;;;;;;24.90;10.85;;;3.00;99.90;;;;;;5024463;28;20037;-76
2022/12/07 01:56:05;;;;;;;25.77;11.05;;;2.90;99.90;;;;;;5022497;28;20096;-76
2022/12/07 01:58:31;;;;;;;26.25;10.77;;;2.90;99.90;;;;;;5021210;28;20135;-76
2022/12/07 02:00:59;;;;;;;25.52;10.90;;;3.00;99.90;;;;;;5014309;28;20063;-76
2022/12/07 02:03:33;;;;;;;22.98;9.63;;;2.90;99.90;;;;;;5015223;28;20415;-76
2022/12/07 02:06:00;;;;;;;26.38;10.63;;;2.90;99.90;;;;;;5020019;28;20056;-76
2022/12/07 02:08:26;;;;;;;22.60;9.88;;;2.90;99.90;;;;;;5013882;28;20045;-76
2022/12/07 02:10:51;;;;;;;23.02;9.32;;;2.80;99.90;;;;;;5012070;28;20029;-76
2022/12/07 02:13:21;;;;;;;22.40;8.73;;;2.70;99.90;;;;;;5025502;28;20119;-76
2022/12/07 02:16:08;;;;;;;23.30;9.20;;;2.60;99.90;;;;;;5026042;28;20432;-76
2022/12/07 02:18:59;;;;;;;21.35;8.13;;;2.60;99.90;;;;;;5025789;28;20040;-76
2022/12/07 02:22:01;;;;;;;19.90;7.38;;;2.60;99.90;;;;;;5014572;28;20112;-76
2022/12/07 02:24:51;;;;;;;16.25;6.40;;;2.60;99.90;;;;;;5025202;28;20100;-76
2022/12/07 02:27:47;;;;;;;18.10;7.03;;;2.60;99.90;;;;;;5017911;28;20037;-76
2022/12/07 02:30:16;;;;;;;22.13;7.90;;;2.60;99.90;;;;;;5023396;28;20029;-76
2022/12/07 02:33:13;;;;;;;19.00;7.30;;;2.60;99.90;;;;;;5016786;28;20160;-76
2022/12/07 02:35:44;;;;;;;22.65;7.85;;;2.50;99.90;;;;;;5022012;28;20469;-76
2022/12/07 02:38:19;;;;;;;;;;;2.50;99.90;;;;;;5027555;28;20122;-76
2022/12/07 02:41:07;;;;;;;14.90;6.55;;;2.50;99.90;;;;;;5024319;28;19909;-76
2022/12/07 02:43:47;;;;;;;17.80;7.05;;;2.40;99.90;;;;;;5022826;28;20320;-76
2022/12/07 02:46:23;;;;;;;15.55;6.53;;;2.40;99.90;;;;;;5023533;28;20439;-76
2022/12/07 02:48:50;;;;;;;15.13;6.35;;;2.40;99.90;;;;;;5019535;28;20080;-76
2022/12/07 02:51:18;;;;;;;17.73;7.00;;;2.40;99.90;;;;;;5027914;28;20071;-76
2022/12/07 02:53:44;;;;;;;20.05;7.43;;;2.40;99.90;;;;;;5026347;28;20033;-76
2022/12/07 02:56:33;;;;;;;17.83;6.53;;;2.30;99.90;;;;;;5036417;28;20352;-76
2022/12/07 02:59:33;;;;;;;24.05;7.47;;;2.30;99.90;;;;;;5025470;28;20113;-76
2022/12/07 03:02:20;;;;;;;17.90;6.53;;;2.30;99.90;;;;;;5040870;28;20304;-76
2022/12/07 03:05:29;;;;;;;18.73;6.28;;;2.20;99.90;;;;;;5023488;28;20406;-76
2022/12/07 03:08:06;;;;;;;17.20;5.75;;;2.20;99.90;;;;;;5025485;28;20173;-77
2022/12/07 03:10:45;;;;;;;21.48;6.80;;;2.10;99.90;;;;;;5026938;28;20128;-76
2022/12/07 03:13:39;;;;;;;14.30;5.55;;;2.10;99.90;;;;;;5021897;28;20049;-76
2022/12/07 03:16:16;;;;;;;18.27;5.47;;;2.00;99.90;;;;;;5028439;28;20354;-76
2022/12/07 03:19:10;;;;;;;15.23;5.05;;;2.00;99.90;;;;;;5025099;28;20399;-76
2022/12/07 03:21:42;;;;;;;15.57;4.93;;;1.90;99.90;;;;;;5026282;28;20093;-76
2022/12/07 03:24:14;;;;;;;16.13;5.22;;;1.80;99.90;;;;;;5025257;28;20584;-76
2022/12/07 03:26:59;;;;;;;13.27;5.35;;;1.80;99.90;;;;;;5027833;28;20033;-76
2022/12/07 03:29:28;;;;;;;10.43;4.70;;;1.80;99.90;;;;;;5027766;28;20026;-76
2022/12/07 03:32:10;;;;;;;17.02;4.95;;;1.70;99.90;;;;;;5020988;28;20037;-76
2022/12/07 03:34:49;;;;;;;13.68;4.70;;;1.70;99.90;;;;;;5034787;28;20029;-76
2022/12/07 03:37:26;;;;;;;13.82;4.53;;;1.70;99.90;;;;;;5028156;28;20041;-76
2022/12/07 03:40:22;;;;;;;11.63;4.22;;;1.70;99.90;;;;;;5024922;28;20074;-76
2022/12/07 03:42:48;;;;;;;14.30;4.90;;;1.70;99.90;;;;;;5012058;28;20041;-77
2022/12/07 03:45:15;;;;;;;12.18;3.92;;;1.70;99.90;;;;;;5020403;28;20038;-76
2022/12/07 03:47:54;;;;;;;11.43;4.35;;;1.60;99.90;;;;;;5025513;28;20033;-76
2022/12/07 03:50:43;;;;;;;13.43;4.45;;;1.60;99.90;;;;;;5017301;28;20025;-76
2022/12/07 03:53:17;;;;;;;12.27;4.30;;;1.60;99.90;;;;;;5022059;28;20132;-76
2022/12/07 03:55:45;;;;;;;11.23;4.07;;;1.50;99.90;;;;;;5024192;28;20034;-76
2022/12/07 03:58:15;;;;;;;11.52;4.40;;;1.50;99.90;;;;;;5028551;28;20068;-76
2022/12/07 04:00:42;;;;;;;11.13;4.13;;;1.50;99.90;;;;;;5030675;28;20057;-76
2022/12/07 04:03:08;;;;;;;14.10;3.58;;;1.40;99.90;;;;;;5029218;28;20110;-77
2022/12/07 04:05:33;;;;;;;12.30;4.10;;;1.40;99.90;;;;;;5026911;28;20112;-76
2022/12/07 04:07:59;;;;;;;12.80;4.15;;;1.40;99.90;;;;;;5021690;28;20037;-77
2022/12/07 04:10:24;;;;;;;8.02;3.88;;;1.40;99.90;;;;;;5020755;28;20040;-76
2022/12/07 04:12:50;;;;;;;11.40;4.50;;;1.40;99.90;;;;;;5024399;28;20034;-76
2022/12/07 04:15:15;;;;;;;13.70;3.95;;;1.40;99.90;;;;;;5026156;28;20037;-76
2022/12/07 04:17:41;;;;;;;16.35;3.60;;;1.40;99.90;;;;;;5029338;28;20159;-76
2022/12/07 04:20:07;;;;;;;10.38;4.00;;;1.50;99.90;;;;;;5028563;28;20113;-77
2022/12/07 04:22:33;;;;;;;10.00;3.40;;;1.50;99.90;;;;;;5021127;28;20776;-76
2022/12/07 04:24:58;;;;;;;13.30;3.83;;;1.50;99.90;;;;;;5022557;28;20021;-76
2022/12/07 04:27:23;;;;;;;13.50;3.70;;;1.60;99.90;;;;;;5032995;28;20029;-76
2022/12/07 04:29:49;;;;;;;11.95;3.47;;;1.60;99.90;;;;;;5021444;28;20047;-76
2022/12/07 04:32:14;;;;;;;8.70;3.13;;;1.60;99.90;;;;;;5024042;28;20084;-77
2022/12/07 04:34:40;;;;;;;12.13;3.45;;;1.70;99.80;;;;;;5030951;28;20116;-76
2022/12/07 04:37:05;;;;;;;14.30;3.92;;;1.70;99.70;;;;;;5028635;28;20030;-76
2022/12/07 04:39:33;;;;;;;9.38;3.33;;;1.70;99.70;;;;;;5025263;28;20082;-77
2022/12/07 04:41:59;;;;;;;15.57;4.05;;;1.70;99.60;;;;;;5017036;28;20033;-76
2022/12/07 04:44:26;;;;;;;8.57;3.58;;;1.70;99.50;;;;;;5037158;28;20030;-76
2022/12/07 04:46:52;;;;;;;8.35;3.65;;;1.60;99.50;;;;;;5025025;28;20033;-76
2022/12/07 04:49:18;;;;;;;12.25;3.90;;;1.60;99.40;;;;;;5027278;28;20018;-76
2022/12/07 04:51:45;;;;;;;13.05;3.90;;;1.60;99.40;;;;;;5029350;28;20304;-76
2022/12/07 04:54:11;;;;;;;15.50;4.20;;;1.60;99.50;;;;;;5026482;28;20045;-76
2022/12/07 04:56:36;;;;;;;14.32;3.80;;;1.60;99.60;;;;;;5027901;28;20065;-76
2022/12/07 04:59:02;;;;;;;13.77;3.63;;;1.60;99.70;;;;;;5023902;28;20057;-76
2022/12/07 05:01:28;;;;;;;9.40;3.05;;;1.60;99.70;;;;;;5027092;28;20032;-76
2022/12/07 05:03:54;;;;;;;9.73;3.25;;;1.60;99.70;;;;;;5017159;28;20033;-76
2022/12/07 05:06:19;;;;;;;11.88;3.40;;;1.60;99.80;;;;;;5025042;28;20488;-76
2022/12/07 05:08:45;;;;;;;8.85;3.45;;;1.60;99.80;;;;;;5026868;28;20100;-76
2022/12/07 05:11:37;;;;;;;13.13;3.38;;;1.60;99.90;;;;;;5026742;28;20353;-76
2022/12/07 05:14:01;;;;;;;10.18;3.28;;;1.60;99.90;;;;;;5022455;28;20026;-76
2022/12/07 05:16:27;;;;;;;14.00;3.65;;;1.60;99.90;;;;;;5021582;28;20432;-76
2022/12/07 05:18:53;;;;;;;9.95;2.58;;;1.50;99.90;;;;;;5030893;28;20033;-76
2022/12/07 05:21:18;;;;;;;11.23;3.05;;;1.50;99.90;;;;;;5027321;28;20032;-77
2022/12/07 05:23:44;;;;;;;12.20;3.03;;;1.40;99.90;;;;;;5026646;28;20046;-76
2022/12/07 05:26:09;;;;;;;9.88;2.63;;;1.40;99.90;;;;;;5027232;28;20334;-76
2022/12/07 05:28:35;;;;;;;16.48;3.38;;;1.30;99.90;;;;;;5023566;28;20053;-81
2022/12/07 05:31:01;;;;;;;10.95;3.00;;;1.30;99.90;;;;;;5034857;28;20094;-79
2022/12/07 05:33:26;;;;;;;9.52;2.65;;;1.20;99.90;;;;;;5019829;28;20094;-78
2022/12/07 05:35:52;;;;;;;10.23;2.78;;;1.20;99.90;;;;;;5013798;28;20025;-78
2022/12/07 05:38:17;;;;;;;7.88;2.25;;;1.20;99.90;;;;;;5022354;28;20033;-78
2022/12/07 05:40:43;;;;;;;8.23;2.40;;;1.10;99.90;;;;;;5030721;28;20378;-78
2022/12/07 05:43:08;;;;;;;8.50;2.22;;;1.10;99.90;;;;;;5032426;28;20037;-78
2022/12/07 05:45:34;;;;;;;6.85;2.45;;;1.10;99.90;;;;;;5025136;28;20025;-79
2022/12/07 05:47:59;;;;;;;6.70;2.20;;;1.10;99.90;;;;;;5018895;28;20318;-77
2022/12/07 05:50:25;;;;;;;9.30;2.33;;;1.10;99.90;;;;;;5020963;28;20162;-77
2022/12/07 05:52:50;;;;;;;7.95;2.28;;;1.10;99.90;;;;;;5035079;28;20028;-78
2022/12/07 05:55:16;;;;;;;8.80;2.50;;;1.00;99.90;;;;;;5032628;28;20034;-78
2022/12/07 05:59:22;;;;;;;4.90;2.00;;;1.00;99.90;;;;;;5023805;28;20029;-78
2022/12/07 06:00:27;;;;;;;6.18;2.15;;;1.00;99.90;;;;;;5024468;28;20427;-78
2022/12/07 06:02:52;;;;;;;6.53;1.83;;;1.00;99.90;;;;;;5025457;28;20029;-78
2022/12/07 06:05:18;;;;;;;9.77;2.30;;;1.10;99.90;;;;;;5024216;28;20041;-77
2022/12/07 06:07:43;;;;;;;4.80;1.90;;;1.10;99.90;;;;;;5018334;28;20037;-77
2022/12/07 06:10:09;;;;;;;4.20;1.50;;;1.10;99.90;;;;;;5024676;28;20022;-77
2022/12/07 06:12:34;;;;;;;5.63;1.30;;;1.10;99.90;;;;;;5028003;28;20450;-77
2022/12/07 06:15:00;;;;;;;6.55;2.15;;;1.10;99.90;;;;;;5019979;28;20037;-78
2022/12/07 06:17:26;;;;;;;2.63;1.58;;;1.10;99.90;;;;;;5017779;28;20042;-77
2022/12/07 06:19:51;;;;;;;10.40;2.10;;;1.20;99.90;;;;;;5023374;28;20025;-78
2022/12/07 06:22:17;;;;;;;4.22;2.08;;;1.20;99.90;;;;;;5030046;28;20094;-78
2022/12/07 06:24:43;;;;;;;6.85;1.55;;;1.30;99.90;;;;;;5030422;28;20320;-78
2022/12/07 06:27:09;;;;;;;6.43;1.80;;;1.30;99.90;;;;;;5027635;28;20132;-79
2022/12/07 06:29:35;;;;;;;5.53;1.60;;;1.40;99.90;;;;;;5029711;28;20103;-78
2022/12/07 06:32:00;;;;;;;6.38;1.83;;;1.40;99.90;;;;;;5022912;28;20076;-78
2022/12/07 06:34:27;;;;;;;7.45;1.80;;;1.40;99.90;;;;;;5026993;28;20326;-79
2022/12/07 06:36:54;;;;;;;4.82;1.60;;;1.40;99.90;;;;;;5031001;28;20478;-78
2022/12/07 06:39:22;;;;;;;6.05;1.98;;;1.40;99.90;;;;;;5038734;28;20077;-79
2022/12/07 06:41:48;;;;;;;5.07;1.80;;;1.50;99.90;;;;;;5020727;28;20025;-79
2022/12/07 06:44:13;;;;;;;3.88;1.83;;;1.40;99.90;;;;;;5028369;28;20175;-79
2022/12/07 06:46:38;;;;;;;9.75;1.95;;;1.50;99.90;;;;;;5027254;28;20029;-79
2022/12/07 06:49:05;;;;;;;5.88;1.90;;;1.50;99.90;;;;;;5023766;28;20025;-78
2022/12/07 06:51:32;;;;;;;9.27;2.60;;;1.50;99.90;;;;;;5015739;28;20037;-79
2022/12/07 06:53:58;;;;;;;8.75;2.33;;;1.50;99.90;;;;;;5022314;28;20315;-78
2022/12/07 06:56:23;;;;;;;4.95;1.92;;;1.50;99.90;;;;;;5025029;28;20030;-79
2022/12/07 06:58:49;;;;;;;5.25;2.60;;;1.50;99.90;;;;;;5023786;28;20129;-78
2022/12/07 07:01:16;;;;;;;11.07;2.90;;;1.50;99.90;;;;;;5016151;28;20366;-78
2022/12/07 07:03:43;;;;;;;5.38;2.22;;;1.60;99.90;;;;;;5020901;28;20033;-77
2022/12/07 07:06:09;;;;;;;10.82;2.67;;;1.60;99.90;;;;;;5018261;28;20034;-78
2022/12/07 07:08:36;;;;;;;10.80;2.88;;;1.60;99.90;;;;;;5024265;28;20057;-78
2022/12/07 07:11:01;;;;;;;7.28;2.63;;;1.60;99.90;;;;;;5029768;28;20061;-77
2022/12/07 07:13:27;;;;;;;5.32;2.33;;;1.50;99.90;;;;;;5025789;28;20484;-78
2022/12/07 07:15:53;;;;;;;7.30;2.35;;;1.50;99.90;;;;;;5022040;28;20029;-78
2022/12/07 07:18:19;;;;;;;6.47;2.40;;;1.60;99.90;;;;;;5020228;28;20288;-78
2022/12/07 07:20:44;;;;;;;7.88;2.00;;;1.50;99.90;;;;;;5028923;28;20168;-79
2022/12/07 07:23:10;;;;;;;5.90;2.33;;;1.50;99.90;;;;;;5026250;28;20049;-78
2022/12/07 07:25:35;;;;;;;6.82;1.65;;;1.50;99.90;;;;;;5020880;28;20037;-78
2022/12/07 07:28:01;;;;;;;8.68;2.05;;;1.50;99.90;;;;;;5029569;28;20029;-78
2022/12/07 07:30:27;;;;;;;7.55;1.70;;;1.50;99.90;;;;;;5025990;28;20091;-78
2022/12/07 07:33:00;;;;;;;4.13;1.60;;;1.50;99.90;;;;;;5025425;28;20030;-78
2022/12/07 07:35:27;;;;;;;7.75;1.65;;;1.50;99.90;;;;;;5026560;28;20095;-78
2022/12/07 07:37:52;;;;;;;3.83;1.55;;;1.50;99.90;;;;;;5026665;28;20425;-78
2022/12/07 07:40:18;;;;;;;7.47;2.13;;;1.60;99.90;;;;;;5028626;28;20026;-78
2022/12/07 07:42:43;;;;;;;8.27;1.95;;;1.60;99.90;;;;;;5020888;28;20060;-78
2022/12/07 07:45:09;;;;;;;5.35;1.98;;;1.60;99.90;;;;;;5020236;28;20072;-78
2022/12/07 07:47:35;;;;;;;6.10;2.25;;;1.60;99.90;;;;;;5022456;28;20442;-78
2022/12/07 07:50:01;;;;;;;8.40;2.08;;;1.70;99.90;;;;;;5034251;28;20143;-78
2022/12/07 07:52:26;;;;;;;5.72;2.03;;;1.60;99.90;;;;;;5029006;28;20033;-78
2022/12/07 07:54:52;;;;;;;8.13;2.20;;;1.60;99.90;;;;;;5022253;28;20562;-71
2022/12/07 07:57:18;;;;;;;6.43;2.42;;;1.60;99.90;;;;;;5022675;28;20030;-70
2022/12/07 07:59:43;;;;;;;8.77;2.30;;;1.60;99.90;;;;;;5028746;28;20026;-70
2022/12/07 08:02:14;;;;;;;9.27;2.50;;;1.60;99.90;;;;;;5028297;28;20382;-73
2022/12/07 08:04:40;;;;;;;5.55;2.00;;;1.70;99.90;;;;;;5021257;28;20029;-74
2022/12/07 08:07:05;;;;;;;6.25;2.53;;;1.60;99.90;;;;;;5028080;28;20167;-74
2022/12/07 08:09:31;;;;;;;7.85;2.55;;;1.70;99.90;;;;;;5026158;28;20028;-74
2022/12/07 08:11:57;;;;;;;7.72;2.20;;;1.70;99.90;;;;;;5028319;28;20020;-74
2022/12/07 08:14:23;;;;;;;8.55;2.60;;;1.80;99.90;;;;;;5024967;28;20052;-73
2022/12/07 08:16:49;;;;;;;6.80;3.10;;;1.70;99.90;;;;;;5025440;28;20029;-75
2022/12/07 08:19:14;;;;;;;6.30;2.53;;;1.70;99.90;;;;;;5028425;28;20216;-73
2022/12/07 08:21:40;;;;;;;6.25;2.70;;;1.80;99.90;;;;;;5028855;28;20137;-73
2022/12/07 08:24:06;;;;;;;11.98;2.92;;;1.80;99.90;;;;;;5023970;28;20029;-73
2022/12/07 08:26:31;;;;;;;7.25;2.90;;;1.80;99.90;;;;;;5015029;28;20438;-73
2022/12/07 08:28:56;;;;;;;6.28;2.50;;;1.80;99.90;;;;;;5032680;28;20450;-73
2022/12/07 08:31:22;;;;;;;8.70;2.78;;;1.90;99.90;;;;;;5021646;28;20017;-73
2022/12/07 08:33:48;;;;;;;11.85;3.58;;;1.90;99.90;;;;;;5022037;28;20471;-73
2022/12/07 08:36:14;;;;;;;13.23;3.13;;;1.90;99.90;;;;;;5024886;28;20105;-72
2022/12/07 08:38:41;;;;;;;10.38;3.10;;;2.00;99.90;;;;;;5031066;28;20126;-73
2022/12/07 08:41:07;;;;;;;9.75;3.10;;;2.00;99.90;;;;;;5027298;28;20528;-73
2022/12/07 08:43:33;;;;;;;7.85;2.80;;;2.00;99.90;;;;;;5019803;28;20029;-72
2022/12/07 08:46:17;;;;;;;6.30;2.28;;;2.10;99.90;;;;;;5021008;28;20025;-72
2022/12/07 08:48:56;;;;;;;9.23;2.58;;;2.10;99.90;;;;;;5028438;28;20037;-73
2022/12/07 08:51:23;;;;;;;6.65;2.30;;;2.10;99.90;;;;;;5026934;28;20472;-73
2022/12/07 08:53:49;;;;;;;10.25;2.35;;;2.10;99.90;;;;;;5028676;28;20024;-73
2022/12/07 08:56:15;;;;;;;9.00;2.20;;;2.10;99.90;;;;;;5023981;28;20061;-73
2022/12/07 08:58:41;;;;;;;7.55;2.33;;;2.20;99.90;;;;;;5019115;28;20044;-73
2022/12/07 09:01:06;;;;;;;7.28;2.00;;;2.20;99.90;;;;;;5028416;28;20517;-72
2022/12/07 09:03:32;;;;;;;10.93;2.35;;;2.20;99.90;;;;;;5020416;28;20389;-72
2022/12/07 09:05:58;;;;;;;12.38;1.80;;;2.30;99.90;;;;;;5026625;28;20389;-74
2022/12/07 09:08:29;;;;;;;4.93;1.77;;;2.40;99.90;;;;;;5025353;28;20095;-75
2022/12/07 09:10:54;;;;;;;;;;;2.40;99.90;;;;;;5029794;28;20021;-74
2022/12/07 09:13:19;;;;;;;5.43;1.83;;;2.40;99.80;;;;;;5027005;28;19909;-74
2022/12/07 09:15:45;;;;;;;6.35;1.40;;;2.40;99.80;;;;;;5021207;28;20459;-74
2022/12/07 09:18:10;;;;;;;5.38;1.58;;;2.40;99.70;;;;;;5021840;28;20108;-74
2022/12/07 09:20:36;;;;;;;2.83;1.10;;;2.50;99.70;;;;;;5029617;28;20378;-75
2022/12/07 09:23:01;;;;;;;6.88;1.55;;;2.50;99.50;;;;;;5028426;28;20133;-74
2022/12/07 09:25:27;;;;;;;3.90;1.52;;;2.50;99.50;;;;;;5026957;28;20040;-74
2022/12/07 09:27:57;;;;;;;7.32;1.50;;;2.50;99.20;;;;;;5025588;28;20481;-73
2022/12/07 09:30:23;;;;;;;4.97;1.55;;;2.50;99.10;;;;;;5022978;28;20033;-75
2022/12/07 09:32:48;;;;;;;5.85;1.35;;;2.40;99.00;;;;;;5021171;28;20324;-74
2022/12/07 09:35:14;;;;;;;10.23;1.95;;;2.50;99.10;;;;;;5024389;28;20608;-74
2022/12/07 09:37:40;;;;;;;5.78;1.60;;;2.50;99.00;;;;;;5026285;28;20335;-74
2022/12/07 09:40:06;;;;;;;2.92;1.27;;;2.50;99.10;;;;;;5026691;28;20020;-75
2022/12/07 09:42:43;;;;;;;4.35;1.08;;;2.60;99.10;;;;;;5027047;28;20364;-74
2022/12/07 09:45:18;;;;;;;4.15;1.38;;;2.40;98.90;;;;;;5022375;28;20021;-75
2022/12/07 09:47:45;;;;;;;5.75;1.20;;;2.50;99.00;;;;;;5012039;28;20037;-74
2022/12/07 09:50:23;;;;;;;2.10;1.38;;;2.60;99.00;;;;;;5025789;28;20109;-74
2022/12/07 09:52:50;;;;;;;6.13;1.50;;;2.60;98.90;;;;;;5024788;28;20040;-74
2022/12/07 09:55:22;;;;;;;3.42;1.60;;;2.60;98.90;;;;;;5027842;28;20139;-74
2022/12/07 09:57:48;;;;;;;11.07;1.90;;;2.60;98.90;;;;;;5024731;28;20059;-70
2022/12/07 10:00:16;;;;;;;6.18;1.40;;;2.70;98.90;;;;;;5018772;28;20331;-69
2022/12/07 10:03:04;;;;;;;4.20;1.23;;;2.80;98.80;;;;;;5024588;28;20051;-72
2022/12/07 10:05:37;;;;;;;4.70;1.60;;;2.90;98.90;;;;;;5018351;28;20124;-72
2022/12/07 10:08:03;;;;;;;1.85;0.90;;;3.00;98.80;;;;;;5021820;28;20021;-74
2022/12/07 10:10:34;;;;;;;8.43;1.65;;;3.10;98.60;;;;;;5028123;28;20036;-74
2022/12/07 10:13:02;;;;;;;4.18;1.17;;;3.10;98.50;;;;;;5035473;28;20091;-74
2022/12/07 10:15:41;;;;;;;6.28;1.30;;;3.00;98.50;;;;;;5025850;28;20034;-74
2022/12/07 10:18:37;;;;;;;5.35;1.30;;;3.00;98.40;;;;;;5027321;28;20152;-74
2022/12/07 10:21:11;;;;;;;4.75;1.25;;;3.10;98.50;;;;;;5019238;28;20077;-74
2022/12/07 10:23:42;;;;;;;4.40;1.77;;;3.10;98.30;;;;;;5020019;28;20055;-75
2022/12/07 10:26:25;;;;;;;;;;;3.10;98.40;;;;;;5013818;28;20346;-74
2022/12/07 10:28:50;;;;;;;10.35;1.83;;;3.10;98.40;;;;;;5020791;28;19988;-75
2022/12/07 10:31:19;;;;;;;3.50;1.40;;;3.10;98.20;;;;;;5026097;28;20089;-75
2022/12/07 10:33:56;;;;;;;9.13;2.28;;;3.20;98.40;;;;;;5019205;28;20458;-74
2022/12/07 10:36:42;;;;;;;7.75;1.50;;;3.30;98.10;;;;;;5026742;28;20036;-74
2022/12/07 10:39:22;;;;;;;5.90;1.48;;;3.40;97.90;;;;;;5021227;28;20075;-74
2022/12/07 10:41:56;;;;;;;4.72;1.10;;;3.50;97.90;;;;;;5024439;28;20091;-73
2022/12/07 10:44:24;;;;;;;5.47;1.27;;;3.60;97.70;;;;;;5012858;28;20121;-74
2022/12/07 10:47:13;;;;;;;2.83;1.02;;;3.60;97.50;;;;;;5012033;28;20105;-74
2022/12/07 10:50:22;;;;;;;6.47;1.52;;;3.50;97.50;;;;;;5023171;28;20592;-74
2022/12/07 10:53:13;;;;;;;3.40;1.20;;;3.40;97.50;;;;;;5024921;28;20346;-73
2022/12/07 10:55:57;;;;;;;;;;;3.40;97.50;;;;;;5007273;28;20577;-73
2022/12/07 10:58:28;;;;;;;6.35;1.25;;;3.20;97.40;;;;;;5017281;28;19913;-74
2022/12/07 11:01:23;;;;;;;3.95;1.20;;;3.30;97.60;;;;;;5025703;28;20029;-73
2022/12/07 11:04:07;;;;;;;5.25;1.15;;;3.20;97.60;;;;;;5029787;28;20079;-73
2022/12/07 11:06:51;;;;;;;2.47;0.90;;;3.30;97.70;;;;;;5028295;28;20352;-74
2022/12/07 11:09:59;;;;;;;3.25;1.45;;;3.30;97.70;;;;;;5027060;28;20113;-74
2022/12/07 11:12:51;;;;;;;4.95;1.67;;;3.30;97.80;;;;;;5025199;28;20029;-74
2022/12/07 11:15:33;;;;;;;4.57;1.25;;;3.30;97.70;;;;;;5021856;28;20036;-73
2022/12/07 11:18:17;;;;;;;5.38;1.63;;;3.30;97.90;;;;;;5030080;28;20048;-74
2022/12/07 11:20:55;;;;;;;8.23;2.35;;;3.30;97.90;;;;;;5024859;28;20538;-74
2022/12/07 11:23:44;;;;;;;7.03;1.33;;;3.40;98.10;;;;;;5028253;28;20462;-74
2022/12/07 11:26:34;;;;;;;8.48;1.45;;;3.40;98.00;;;;;;5026198;28;20048;-74
2022/12/07 11:29:17;;;;;;;9.10;1.38;;;3.40;98.10;;;;;;5026277;28;20185;-74
2022/12/07 11:32:19;;;;;;;5.97;1.45;;;3.40;98.00;;;;;;5026064;28;20028;-74
2022/12/07 11:35:23;;;;;;;7.05;2.17;;;3.40;98.10;;;;;;5023568;28;20029;-74
2022/12/07 11:37:50;;;;;;;4.63;1.23;;;3.60;98.20;;;;;;5013660;28;20089;-74
2022/12/07 11:40:30;;;;;;;9.15;2.03;;;3.60;98.00;;;;;;5032859;28;20426;-74
2022/12/07 11:43:06;;;;;;;7.20;1.77;;;3.60;97.90;;;;;;5032766;28;20120;-74
2022/12/07 11:45:34;;;;;;;5.00;1.67;;;3.60;97.70;;;;;;5018968;28;20021;-74
2022/12/07 11:48:10;;;;;;;5.18;1.60;;;3.70;97.80;;;;;;5025294;28;20029;-74
2022/12/07 11:50:46;;;;;;;7.00;1.25;;;3.70;97.60;;;;;;5026899;28;20028;-74
2022/12/07 11:53:19;;;;;;;6.35;1.58;;;3.70;97.50;;;;;;5029542;28;20037;-74
2022/12/07 11:55:54;;;;;;;5.22;1.38;;;3.70;97.50;;;;;;5026444;28;20449;-74
2022/12/07 11:58:36;;;;;;;6.78;1.10;;;3.80;97.50;;;;;;5028538;28;20385;-74
2022/12/07 12:01:30;;;;;;;3.35;1.10;;;3.80;97.40;;;;;;5029322;28;20029;-74
2022/12/07 12:04:21;;;;;;;4.93;1.20;;;3.70;97.10;;;;;;5005573;28;20042;-74
2022/12/07 12:06:47;;;;;;;2.13;0.88;;;3.70;97.00;;;;;;5026078;28;20013;-74
2022/12/07 12:09:20;;;;;;;6.63;1.17;;;3.70;97.00;;;;;;5027362;28;20113;-74
2022/12/07 12:12:19;;;;;;;6.43;1.27;;;3.70;97.00;;;;;;5023844;28;20132;-74
2022/12/07 12:15:21;;;;;;;4.50;0.75;;;3.70;97.00;;;;;;5028702;28;20037;-74
2022/12/07 12:18:25;;;;;;;10.68;1.38;;;3.60;96.90;;;;;;5028541;28;20121;-73
2022/12/07 12:20:57;;;;;;;2.38;1.05;;;3.80;97.10;;;;;;5012142;28;20037;-74
2022/12/07 12:23:51;;;;;;;7.70;1.55;;;3.70;96.80;;;;;;5025180;28;20128;-75
2022/12/07 12:26:23;;;;;;;5.63;0.98;;;3.70;96.90;;;;;;5025248;28;20124;-74
2022/12/07 12:28:48;;;;;;;5.35;1.10;;;3.80;96.90;;;;;;5025630;28;20048;-75
2022/12/07 12:31:16;;;;;;;2.03;0.80;;;3.70;96.80;;;;;;5026022;28;20029;-74
2022/12/07 12:33:49;;;;;;;6.20;1.48;;;3.70;96.70;;;;;;5021134;28;20032;-74
2022/12/07 12:36:25;;;;;;;4.78;0.98;;;3.70;96.60;;;;;;5028491;28;20033;-74
2022/12/07 12:39:14;;;;;;;9.85;1.13;;;3.70;96.50;;;;;;5026246;28;20033;-74
2022/12/07 12:44:17;;;;;;;3.08;0.98;;;3.70;96.10;;;;;;5027047;28;20029;-74
2022/12/07 12:46:47;;;;;;;3.40;0.90;;;3.70;96.10;;;;;;5025957;28;20025;-74
2022/12/07 12:49:19;;;;;;;5.82;0.90;;;3.70;95.80;;;;;;5026969;28;20076;-74
2022/12/07 12:51:48;;;;;;;4.10;0.93;;;3.70;95.90;;;;;;5026243;28;20039;-74
2022/12/07 12:54:18;;;;;;;2.58;0.88;;;3.80;95.80;;;;;;5024163;28;20030;-74
2022/12/07 12:56:55;;;;;;;2.53;0.65;;;3.80;95.70;;;;;;5023659;28;20306;-74
2022/12/07 12:59:29;;;;;;;2.00;0.73;;;3.70;95.30;;;;;;5018858;28;20048;-74
2022/12/07 13:02:16;;;;;;;2.97;1.00;;;3.60;95.10;;;;;;5021089;28;20028;-74
2022/12/07 13:04:52;;;;;;;6.28;1.02;;;3.60;95.10;;;;;;5016778;28;20065;-74
2022/12/07 13:07:52;;;;;;;4.85;1.13;;;3.60;95.40;;;;;;5022259;28;20033;-74
2022/12/07 13:10:23;;;;;;;3.83;1.02;;;3.50;95.70;;;;;;5025334;28;20033;-74
2022/12/07 13:13:09;;;;;;;4.97;1.15;;;3.40;95.90;;;;;;5021479;28;20112;-74
2022/12/07 13:15:41;;;;;;;3.50;0.85;;;3.30;96.20;;;;;;5025422;28;20029;-74
2022/12/07 13:18:29;;;;;;;2.55;0.90;;;3.30;96.50;;;;;;5028146;28;20035;-74